Shelton, Louisiana
Current Conditions -  °F | °C
As of 4:15 PM on Sunday 23 Nov 2014 (Local Time) from KBQP Reporting Station
Scattered Clouds Scattered Clouds  
Wind Chill: 67°   Ceiling: Unl
Heat Index: 67°   Visibility: 10mi
Dew Point: 59°   Wind: 12mph
Humidity: 76%   Direction: 190°S
Pressure: 29.47"   Gusts: 17mph
Location:  32.8721°N, 91.912°W
Report Text: KBQP 232215Z AUTO 19010G15KT 10SM SCT024 SCT028 20/15 A2947 RMK AO2 T01950152
Loading
Personal Weather Stations






























Interactive Weather Map New forecast layout! Learn more

10-Day Weather Forecast

Advertisements
Track Severe Weather on mobile